Time;durP1;ratioP1;P1;durP2;ratioP2;P2;SDS_P1;SDS_P2;PMS_P1;PMS_P2;Temp;Humidity;BMP_temperature;BMP_pressure;BME280_temperature;BME280_humidity;BME280_pressure;Samples;Min_cycle;Max_cycle;Signal;HPM_P1;HPM_P2
2023/03/22 00:01:19;;;;;;;6.47;3.05;;;10.70;99.90;;;;;;5061166;28;20042;-42
2023/03/22 00:03:45;;;;;;;4.93;2.70;;;10.70;99.90;;;;;;5061226;28;20054;-42
2023/03/22 00:06:11;;;;;;;7.10;3.17;;;10.60;99.90;;;;;;5061242;28;20020;-43
2023/03/22 00:08:37;;;;;;;5.68;2.75;;;10.60;99.90;;;;;;5061932;28;20024;-43
2023/03/22 00:11:04;;;;;;;5.40;2.42;;;10.60;99.90;;;;;;5060271;28;20037;-43
2023/03/22 00:13:34;;;;;;;7.32;2.78;;;10.60;99.90;;;;;;5061028;28;20036;-42
2023/03/22 00:16:01;;;;;;;4.63;2.55;;;10.60;99.90;;;;;;5060098;28;20888;-42
2023/03/22 00:18:28;;;;;;;5.10;2.75;;;10.60;99.90;;;;;;5060835;28;20041;-43
2023/03/22 00:20:55;;;;;;;5.65;3.00;;;10.60;99.90;;;;;;5061329;28;20027;-44
2023/03/22 00:23:22;;;;;;;6.43;2.92;;;10.60;99.90;;;;;;5060405;28;20037;-44
2023/03/22 00:25:48;;;;;;;5.88;2.80;;;10.50;99.90;;;;;;5061924;28;20024;-42
2023/03/22 00:28:15;;;;;;;5.30;2.50;;;10.50;99.90;;;;;;5060931;28;20147;-42
2023/03/22 00:30:42;;;;;;;4.72;2.58;;;10.50;99.90;;;;;;5061054;28;20028;-43
2023/03/22 00:33:08;;;;;;;5.15;2.53;;;10.50;99.90;;;;;;5060068;28;20493;-43
2023/03/22 00:35:33;;;;;;;5.28;2.47;;;10.50;99.90;;;;;;5061268;28;20033;-42
2023/03/22 00:38:12;;;;;;;4.10;2.30;;;10.40;99.90;;;;;;5060250;28;20574;-43
2023/03/22 00:40:38;;;;;;;5.00;2.38;;;10.40;99.90;;;;;;5061192;28;20131;-43
2023/03/22 00:43:04;;;;;;;5.07;2.28;;;10.40;99.90;;;;;;5060319;28;20027;-44
2023/03/22 00:45:29;;;;;;;3.28;1.85;;;10.30;99.90;;;;;;5060221;28;20582;-44
2023/03/22 00:47:55;;;;;;;7.10;3.35;;;10.30;99.90;;;;;;5060692;28;20432;-44
2023/03/22 00:50:20;;;;;;;4.53;1.95;;;10.30;99.90;;;;;;5060612;28;20039;-43
2023/03/22 00:52:46;;;;;;;4.10;2.40;;;10.30;99.90;;;;;;5059404;28;20060;-43
2023/03/22 00:55:12;;;;;;;7.25;2.05;;;10.30;99.90;;;;;;5059731;28;20456;-43
2023/03/22 00:57:37;;;;;;;3.72;2.00;;;10.20;99.90;;;;;;5060311;28;20028;-43
2023/03/22 01:00:14;;;;;;;7.45;2.45;;;10.20;99.90;;;;;;5059320;28;20638;-43
2023/03/22 01:02:43;;;;;;;4.65;2.67;;;10.20;99.90;;;;;;5060511;28;20123;-43
2023/03/22 01:05:15;;;;;;;5.45;2.17;;;10.20;99.90;;;;;;5055610;28;20571;-43
2023/03/22 01:07:42;;;;;;;5.45;2.50;;;10.20;99.90;;;;;;5060103;28;20354;-43
2023/03/22 01:10:08;;;;;;;5.10;2.30;;;10.20;99.90;;;;;;5059623;28;20025;-43
2023/03/22 01:12:37;;;;;;;5.57;2.45;;;10.20;99.90;;;;;;5060064;28;20028;-43
2023/03/22 01:15:04;;;;;;;4.80;2.30;;;10.20;99.90;;;;;;5060107;28;20178;-43
2023/03/22 01:17:30;;;;;;;5.55;2.58;;;10.20;99.90;;;;;;5060944;28;20021;-42
2023/03/22 01:19:55;;;;;;;4.90;2.45;;;10.20;99.90;;;;;;5058979;28;20855;-43
2023/03/22 01:22:21;;;;;;;6.30;2.45;;;10.20;99.90;;;;;;5059613;28;20035;-43
2023/03/22 01:24:48;;;;;;;5.55;2.40;;;10.20;99.90;;;;;;5060727;28;20064;-43
2023/03/22 01:27:14;;;;;;;4.97;2.55;;;10.20;99.90;;;;;;5060320;28;20081;-43
2023/03/22 01:29:43;;;;;;;6.00;2.80;;;10.20;99.90;;;;;;5060319;28;20036;-43
2023/03/22 01:32:18;;;;;;;7.13;2.50;;;10.20;99.90;;;;;;5059481;28;20016;-43
2023/03/22 01:34:44;;;;;;;6.68;2.38;;;10.20;99.90;;;;;;5058444;28;20040;-43
2023/03/22 01:37:16;;;;;;;5.25;2.25;;;10.20;99.90;;;;;;5059229;28;20029;-42
2023/03/22 01:39:42;;;;;;;5.90;2.47;;;10.20;99.90;;;;;;5060100;28;20032;-43
2023/03/22 01:42:15;;;;;;;4.95;2.53;;;10.20;99.90;;;;;;5059146;28;20145;-43
2023/03/22 01:44:43;;;;;;;6.82;2.78;;;10.20;99.90;;;;;;5059776;28;20082;-43
2023/03/22 01:47:12;;;;;;;4.90;2.63;;;10.10;99.90;;;;;;5059273;28;20020;-43
2023/03/22 01:49:39;;;;;;;6.57;2.97;;;10.20;99.90;;;;;;5059135;28;20059;-43
2023/03/22 01:52:13;;;;;;;3.25;2.40;;;10.10;99.90;;;;;;5059031;28;20044;-42
2023/03/22 01:54:45;;;;;;;7.95;2.90;;;10.10;99.90;;;;;;5059696;28;20067;-42
2023/03/22 01:57:11;;;;;;;;;;;10.10;99.90;;;;;;5059581;28;20062;-42
2023/03/22 01:59:41;;;;;;;6.28;2.80;;;10.10;99.90;;;;;;5059448;28;19916;-42
2023/03/22 02:02:09;;;;;;;3.92;2.50;;;10.10;99.90;;;;;;5055798;28;20050;-43
2023/03/22 02:04:37;;;;;;;5.25;2.88;;;10.10;99.90;;;;;;5059848;28;20056;-43
2023/03/22 02:07:14;;;;;;;4.90;2.67;;;10.10;99.90;;;;;;5058955;28;20029;-42
2023/03/22 02:09:41;;;;;;;4.50;2.78;;;10.20;99.90;;;;;;5059006;28;20129;-42
2023/03/22 02:12:30;;;;;;;4.93;2.75;;;10.30;99.90;;;;;;5059067;28;20052;-45
2023/03/22 02:15:18;;;;;;;6.65;3.75;;;10.30;99.90;;;;;;5059243;28;20025;-43
2023/03/22 02:18:05;;;;;;;7.85;3.78;;;10.30;99.90;;;;;;5056091;28;20430;-43
2023/03/22 02:20:52;;;;;;;9.07;4.47;;;10.40;99.90;;;;;;5059419;28;20029;-42
2023/03/22 02:23:59;;;;;;;8.45;4.47;;;10.40;99.90;;;;;;5047990;28;20029;-43
2023/03/22 02:26:52;;;;;;;8.38;4.13;;;10.50;99.90;;;;;;5059221;28;20028;-43
2023/03/22 02:29:43;;;;;;;6.43;4.55;;;10.60;99.90;;;;;;5058852;28;20645;-43
2023/03/22 02:32:21;;;;;;;5.68;4.63;;;10.60;99.90;;;;;;5058706;28;20021;-42
2023/03/22 02:35:08;;;;;;;7.32;4.80;;;10.70;99.90;;;;;;5059356;28;20033;-43
2023/03/22 02:37:39;;;;;;;8.52;5.47;;;10.80;99.90;;;;;;5058691;28;20119;-42
2023/03/22 02:40:30;;;;;;;8.52;6.63;;;10.80;99.90;;;;;;5038101;28;20522;-43
2023/03/22 02:43:11;;;;;;;11.20;6.32;;;10.80;99.90;;;;;;5056688;28;20135;-43
2023/03/22 02:45:55;;;;;;;9.32;6.15;;;10.90;99.90;;;;;;5058769;28;20024;-43
2023/03/22 02:48:34;;;;;;;7.45;5.88;;;10.90;99.90;;;;;;5058203;28;20020;-43
2023/03/22 02:51:06;;;;;;;8.48;6.22;;;10.90;99.90;;;;;;5058136;28;20036;-43
2023/03/22 02:54:01;;;;;;;11.02;7.13;;;10.90;99.90;;;;;;5058807;28;20035;-44
2023/03/22 02:56:38;;;;;;;11.77;7.80;;;10.90;99.90;;;;;;5058859;28;20028;-43
2023/03/22 02:59:06;;;;;;;9.85;7.40;;;11.00;99.90;;;;;;5054655;28;20152;-44
2023/03/22 03:01:40;;;;;;;11.18;7.80;;;11.00;99.90;;;;;;5059181;28;20023;-43
2023/03/22 03:04:11;;;;;;;10.23;7.50;;;11.00;99.90;;;;;;5053800;28;20127;-43
2023/03/22 03:06:44;;;;;;;10.45;8.00;;;11.00;99.90;;;;;;5058606;28;20575;-43
2023/03/22 03:09:16;;;;;;;8.90;6.95;;;11.00;99.90;;;;;;5057554;28;20039;-44
2023/03/22 03:11:47;;;;;;;10.35;7.68;;;11.10;99.90;;;;;;5059049;28;20036;-44
2023/03/22 03:14:30;;;;;;;10.93;7.80;;;11.00;99.90;;;;;;5058317;28;20223;-41
2023/03/22 03:17:40;;;;;;;9.85;7.45;;;11.10;99.90;;;;;;5061917;28;20021;-44
2023/03/22 03:20:30;;;;;;;11.70;7.85;;;11.10;99.90;;;;;;5050190;28;20041;-42
2023/03/22 03:23:12;;;;;;;8.73;7.82;;;11.10;99.90;;;;;;5062137;28;20036;-43
2023/03/22 03:25:56;;;;;;;9.00;6.97;;;11.00;99.90;;;;;;5062674;28;20114;-43
2023/03/22 03:29:06;;;;;;;7.20;6.40;;;11.00;99.90;;;;;;5062100;28;20103;-43
2023/03/22 03:32:03;;;;;;;10.80;8.00;;;11.00;99.90;;;;;;5057099;28;20040;-43
2023/03/22 03:34:41;;;;;;;10.63;7.82;;;10.90;99.90;;;;;;5061139;28;20595;-43
2023/03/22 03:37:16;;;;;;;8.70;7.38;;;10.90;99.90;;;;;;5062227;28;20048;-44
2023/03/22 03:39:49;;;;;;;8.75;7.15;;;10.90;99.90;;;;;;5061971;28;20742;-44
2023/03/22 03:42:16;;;;;;;8.45;7.07;;;10.90;99.90;;;;;;5041542;28;20124;-43
2023/03/22 03:44:42;;;;;;;9.48;7.18;;;11.00;99.90;;;;;;5056929;28;20032;-43
2023/03/22 03:47:09;;;;;;;10.63;7.65;;;10.90;99.90;;;;;;5061028;28;20036;-44
2023/03/22 03:49:35;;;;;;;10.40;8.15;;;11.00;99.90;;;;;;5061919;28;20024;-43
2023/03/22 03:52:03;;;;;;;10.65;8.20;;;10.90;99.90;;;;;;5061402;28;20519;-43
2023/03/22 03:54:29;;;;;;;10.90;7.72;;;10.90;99.90;;;;;;5061050;28;20483;-42
2023/03/22 03:56:55;;;;;;;11.60;6.97;;;10.90;99.90;;;;;;5061507;28;20166;-43
2023/03/22 03:59:23;;;;;;;7.10;6.03;;;10.80;99.90;;;;;;5060904;28;20028;-42
2023/03/22 04:01:52;;;;;;;8.68;6.70;;;10.80;99.90;;;;;;5061718;28;20043;-43
2023/03/22 04:04:25;;;;;;;8.52;7.10;;;10.80;99.90;;;;;;5061184;28;20535;-43
2023/03/22 04:06:52;;;;;;;9.68;6.55;;;10.80;99.90;;;;;;5061802;28;20408;-42
2023/03/22 04:09:18;;;;;;;9.70;6.90;;;10.80;99.90;;;;;;5060649;28;20067;-43
2023/03/22 04:11:43;;;;;;;8.10;6.38;;;10.80;99.90;;;;;;5061111;28;20033;-43
2023/03/22 04:14:09;;;;;;;8.60;5.88;;;10.80;99.90;;;;;;5060556;28;20048;-42
2023/03/22 04:16:34;;;;;;;8.43;5.72;;;10.70;99.90;;;;;;5060988;28;20028;-43
2023/03/22 04:19:00;;;;;;;10.13;5.78;;;10.70;99.90;;;;;;5060798;28;20040;-43
2023/03/22 04:21:28;;;;;;;7.28;5.53;;;10.70;99.90;;;;;;5060417;28;20028;-43
2023/03/22 04:23:54;;;;;;;10.05;6.10;;;10.70;99.90;;;;;;5061063;28;20059;-43
2023/03/22 04:26:23;;;;;;;5.22;4.70;;;10.70;99.90;;;;;;5060346;28;20017;-43
2023/03/22 04:28:48;;;;;;;8.25;5.78;;;10.70;99.90;;;;;;5061357;28;20035;-44
2023/03/22 04:31:17;;;;;;;6.68;5.13;;;10.70;99.90;;;;;;5060346;28;20017;-43
2023/03/22 04:33:46;;;;;;;7.82;5.55;;;10.70;99.90;;;;;;5061386;28;20370;-43
2023/03/22 04:36:16;;;;;;;8.38;5.40;;;10.60;99.90;;;;;;5059609;28;20021;-44
2023/03/22 04:38:44;;;;;;;8.48;5.75;;;10.60;99.90;;;;;;5061575;28;20111;-43
2023/03/22 04:41:10;;;;;;;7.80;4.38;;;10.50;99.90;;;;;;5060628;28;20089;-43
2023/03/22 04:43:38;;;;;;;8.05;4.65;;;10.50;99.90;;;;;;5060771;28;20024;-43
2023/03/22 04:46:05;;;;;;;7.50;5.57;;;10.50;99.90;;;;;;5061013;28;20025;-43
2023/03/22 04:48:31;;;;;;;6.63;5.13;;;10.50;99.90;;;;;;5061115;28;20037;-42
2023/03/22 04:50:57;;;;;;;6.38;4.50;;;10.50;99.90;;;;;;5059717;28;20028;-42
2023/03/22 04:53:26;;;;;;;4.93;4.30;;;10.50;99.90;;;;;;5060656;28;20048;-43
2023/03/22 04:55:55;;;;;;;8.10;4.38;;;10.50;99.90;;;;;;5060861;28;20074;-43
2023/03/22 04:58:24;;;;;;;6.70;4.90;;;10.40;99.90;;;;;;5059661;28;20036;-43
2023/03/22 05:00:52;;;;;;;6.00;4.55;;;10.40;99.90;;;;;;5059955;28;20074;-43
2023/03/22 05:03:19;;;;;;;6.00;4.70;;;10.50;99.90;;;;;;5059662;28;20590;-43
2023/03/22 05:05:52;;;;;;;6.55;4.35;;;10.40;99.90;;;;;;5059275;28;20484;-42
2023/03/22 05:08:18;;;;;;;;;;;10.40;99.90;;;;;;5056776;28;20081;-43
2023/03/22 05:10:44;;;;;;;6.25;4.30;;;10.40;99.90;;;;;;5060303;28;19908;-42
2023/03/22 05:13:10;;;;;;;6.93;4.20;;;10.40;99.90;;;;;;5058011;28;20603;-42
2023/03/22 05:15:37;;;;;;;4.47;4.07;;;10.40;99.90;;;;;;5059957;28;20925;-43
2023/03/22 05:18:03;;;;;;;7.13;4.53;;;10.50;99.90;;;;;;5059008;28;20035;-43
2023/03/22 05:20:32;;;;;;;5.45;4.15;;;10.50;99.90;;;;;;5059524;28;20025;-43
2023/03/22 05:23:01;;;;;;;5.18;3.97;;;10.50;99.90;;;;;;5060363;28;20028;-43
2023/03/22 05:25:27;;;;;;;6.38;3.90;;;10.60;99.90;;;;;;5059058;28;20063;-43
2023/03/22 05:27:54;;;;;;;5.45;3.70;;;10.60;99.90;;;;;;5060040;28;20112;-43
2023/03/22 05:30:23;;;;;;;6.40;3.90;;;10.60;99.90;;;;;;5059349;28;20138;-43
2023/03/22 05:32:49;;;;;;;4.47;3.70;;;10.60;99.90;;;;;;5058972;28;20083;-44
2023/03/22 05:35:14;;;;;;;4.80;3.50;;;10.60;99.90;;;;;;5058799;28;20107;-43
2023/03/22 05:37:40;;;;;;;7.10;4.13;;;10.60;99.90;;;;;;5059034;28;20035;-43
2023/03/22 05:40:11;;;;;;;6.57;3.80;;;10.60;99.90;;;;;;5057577;28;20024;-43
2023/03/22 05:42:37;;;;;;;4.95;3.38;;;10.50;99.90;;;;;;5059523;28;20028;-43
2023/03/22 05:45:03;;;;;;;6.30;3.53;;;10.50;99.90;;;;;;5059477;28;20027;-43
2023/03/22 05:47:28;;;;;;;3.75;3.10;;;10.50;99.90;;;;;;5058439;28;20031;-42
2023/03/22 05:50:14;;;;;;;5.15;3.25;;;10.40;99.90;;;;;;5059218;28;20105;-42
2023/03/22 05:52:41;;;;;;;7.00;3.50;;;10.40;99.90;;;;;;5059314;28;20044;-43
2023/03/22 05:55:08;;;;;;;5.45;2.65;;;10.30;99.90;;;;;;5058956;28;20042;-43
2023/03/22 05:57:34;;;;;;;4.95;3.30;;;10.30;99.90;;;;;;5060423;28;20192;-43
2023/03/22 06:00:00;;;;;;;5.22;3.25;;;10.30;99.90;;;;;;5055593;28;20017;-43
2023/03/22 06:02:27;;;;;;;5.03;3.20;;;10.30;99.90;;;;;;5058977;28;20054;-43
2023/03/22 06:04:52;;;;;;;4.30;3.10;;;10.30;99.90;;;;;;5059402;28;20024;-43
2023/03/22 06:07:18;;;;;;;3.83;3.17;;;10.30;99.90;;;;;;5058757;28;20090;-43
2023/03/22 06:09:44;;;;;;;7.03;3.70;;;10.30;99.90;;;;;;5059349;28;20052;-43
2023/03/22 06:12:10;;;;;;;6.07;3.00;;;10.30;99.90;;;;;;5058855;28;20723;-43
2023/03/22 06:14:35;;;;;;;5.18;3.25;;;10.30;99.90;;;;;;5058558;28;20059;-42
2023/03/22 06:17:01;;;;;;;4.75;3.45;;;10.30;99.90;;;;;;5059701;28;20016;-44
2023/03/22 06:19:27;;;;;;;6.68;2.83;;;10.30;99.90;;;;;;5058989;28;20111;-44
2023/03/22 06:21:55;;;;;;;6.25;3.38;;;10.30;99.90;;;;;;5058734;28;20107;-43
2023/03/22 06:24:21;;;;;;;5.25;3.10;;;10.30;99.90;;;;;;5058813;28;20021;-43
2023/03/22 06:26:47;;;;;;;6.80;3.10;;;10.30;99.90;;;;;;5059340;28;20032;-43
2023/03/22 06:29:13;;;;;;;5.22;2.90;;;10.30;99.90;;;;;;5058706;28;20031;-43
2023/03/22 06:31:38;;;;;;;6.30;2.95;;;10.30;99.90;;;;;;5060322;28;20116;-43
2023/03/22 06:34:06;;;;;;;5.97;2.80;;;10.30;99.90;;;;;;5059432;28;20036;-43
2023/03/22 06:36:32;;;;;;;6.00;3.00;;;10.30;99.90;;;;;;5058698;28;20520;-43
2023/03/22 06:38:59;;;;;;;5.55;2.95;;;10.30;99.90;;;;;;5058891;28;20067;-43
2023/03/22 06:41:25;;;;;;;5.97;2.83;;;10.30;99.90;;;;;;5059391;28;20153;-43
2023/03/22 06:43:51;;;;;;;3.88;2.80;;;10.30;99.90;;;;;;5056211;28;20529;-43
2023/03/22 06:46:17;;;;;;;7.15;3.00;;;10.30;99.90;;;;;;5055340;28;20043;-44
2023/03/22 06:48:42;;;;;;;6.18;2.78;;;10.30;99.90;;;;;;5057825;28;20025;-45
2023/03/22 06:51:08;;;;;;;5.07;2.88;;;10.30;99.90;;;;;;5057502;28;20032;-43
2023/03/22 06:53:34;;;;;;;5.15;2.42;;;10.30;99.90;;;;;;5061504;28;20057;-43
2023/03/22 06:55:59;;;;;;;4.82;2.83;;;10.40;99.90;;;;;;5061279;28;20052;-43
2023/03/22 06:58:25;;;;;;;6.68;3.30;;;10.40;99.90;;;;;;5060805;28;20032;-43
2023/03/22 07:00:51;;;;;;;3.60;2.20;;;10.50;99.90;;;;;;5061747;28;20131;-44
2023/03/22 07:03:17;;;;;;;4.30;2.20;;;10.70;99.90;;;;;;5060214;28;20028;-44
2023/03/22 07:05:43;;;;;;;3.78;2.60;;;10.80;99.90;;;;;;5060667;28;20063;-44
2023/03/22 07:08:09;;;;;;;6.40;2.70;;;10.90;99.90;;;;;;5060200;28;20056;-44
2023/03/22 07:10:35;;;;;;;7.97;2.60;;;11.10;99.90;;;;;;5060859;28;20020;-44
2023/03/22 07:13:02;;;;;;;7.68;2.83;;;11.20;99.90;;;;;;5060482;28;20032;-43
2023/03/22 07:15:29;;;;;;;5.05;2.90;;;11.30;99.90;;;;;;5060404;28;20107;-43
2023/03/22 07:17:54;;;;;;;6.72;2.67;;;11.30;99.90;;;;;;5060167;28;20017;-43
2023/03/22 07:20:20;;;;;;;5.75;2.83;;;11.40;99.90;;;;;;5060899;28;20070;-43
2023/03/22 07:22:46;;;;;;;4.38;2.50;;;11.50;99.90;;;;;;5061046;28;20577;-43
2023/03/22 07:25:12;;;;;;;6.63;3.03;;;11.60;99.90;;;;;;5059629;28;20025;-43
2023/03/22 07:27:37;;;;;;;5.20;3.15;;;11.60;99.90;;;;;;5060581;28;20036;-44
2023/03/22 07:30:04;;;;;;;6.22;2.70;;;11.60;99.90;;;;;;5060397;28;20032;-43
2023/03/22 07:32:30;;;;;;;5.18;2.47;;;11.60;99.90;;;;;;5059726;28;20106;-42
2023/03/22 07:34:55;;;;;;;5.93;2.85;;;11.70;99.90;;;;;;5062119;28;20029;-42
2023/03/22 07:37:21;;;;;;;6.70;2.70;;;11.70;99.90;;;;;;5060244;28;20025;-43
2023/03/22 07:39:47;;;;;;;5.43;2.70;;;11.70;99.90;;;;;;5060836;28;20570;-44
2023/03/22 07:42:12;;;;;;;5.03;2.63;;;11.70;99.90;;;;;;5061077;28;20430;-43
2023/03/22 07:44:38;;;;;;;6.63;2.78;;;11.70;99.90;;;;;;5061881;28;20036;-44
2023/03/22 07:47:04;;;;;;;7.90;3.40;;;11.70;99.90;;;;;;5060502;28;20017;-44
2023/03/22 07:49:30;;;;;;;4.30;2.45;;;11.70;99.90;;;;;;5062070;28;20452;-44
2023/03/22 07:51:56;;;;;;;6.28;2.67;;;11.70;99.90;;;;;;5061158;28;20043;-44
2023/03/22 07:54:25;;;;;;;7.18;3.20;;;11.70;99.90;;;;;;5059167;28;20044;-44
2023/03/22 07:56:50;;;;;;;5.03;3.00;;;11.70;99.90;;;;;;5060938;28;20483;-43
2023/03/22 07:59:16;;;;;;;7.90;3.33;;;11.70;99.90;;;;;;5060140;28;20039;-43
2023/03/22 08:01:45;;;;;;;7.20;2.97;;;11.80;99.90;;;;;;5060007;28;20376;-43
2023/03/22 08:04:11;;;;;;;5.68;2.72;;;11.80;99.90;;;;;;5057632;28;20862;-45
2023/03/22 08:06:39;;;;;;;5.32;2.80;;;11.90;99.90;;;;;;5061208;28;20055;-43
2023/03/22 08:09:07;;;;;;;6.05;2.70;;;11.90;99.90;;;;;;5058253;28;20028;-44
2023/03/22 08:11:33;;;;;;;6.05;2.60;;;11.90;99.90;;;;;;5058849;28;20429;-43
2023/03/22 08:13:58;;;;;;;6.32;2.63;;;12.00;99.90;;;;;;5058634;28;20064;-44
2023/03/22 08:16:24;;;;;;;5.00;2.88;;;12.00;99.90;;;;;;5060455;28;20781;-44
2023/03/22 08:18:50;;;;;;;8.25;3.00;;;12.10;99.90;;;;;;5061014;28;20037;-44
2023/03/22 08:21:18;;;;;;;5.20;2.70;;;12.10;99.90;;;;;;5059311;28;20064;-43
2023/03/22 08:23:44;;;;;;;5.05;2.85;;;12.20;99.90;;;;;;5060478;28;20052;-43
2023/03/22 08:26:10;;;;;;;7.10;3.00;;;12.30;99.90;;;;;;5059920;28;20442;-43
2023/03/22 08:28:35;;;;;;;5.85;3.15;;;12.30;99.90;;;;;;5059452;28;20024;-43
2023/03/22 08:31:08;;;;;;;5.22;2.55;;;12.30;99.90;;;;;;5059810;28;20823;-44
2023/03/22 08:33:34;;;;;;;6.13;2.88;;;12.40;99.90;;;;;;5060095;28;20048;-43
2023/03/22 08:36:07;;;;;;;4.95;2.53;;;12.40;99.90;;;;;;5059555;28;20111;-43
2023/03/22 08:38:33;;;;;;;7.13;2.97;;;12.50;99.90;;;;;;5060268;28;20044;-43
2023/03/22 08:40:58;;;;;;;9.48;3.05;;;12.50;99.90;;;;;;5059734;28;20544;-44
2023/03/22 08:43:24;;;;;;;9.30;3.22;;;12.60;99.90;;;;;;5059026;28;20040;-44
2023/03/22 08:45:49;;;;;;;6.50;2.38;;;12.60;99.90;;;;;;5060469;28;20032;-44
2023/03/22 08:48:15;;;;;;;7.38;3.28;;;12.70;99.90;;;;;;5059940;28;20032;-44
2023/03/22 08:50:41;;;;;;;9.90;3.03;;;12.70;99.90;;;;;;5059776;28;20571;-43
2023/03/22 08:53:10;;;;;;;9.50;3.50;;;12.80;99.90;;;;;;5059044;28;20109;-43
2023/03/22 08:55:35;;;;;;;5.47;3.35;;;12.80;99.90;;;;;;5060636;28;20024;-43
2023/03/22 08:58:02;;;;;;;8.25;3.13;;;12.90;99.90;;;;;;5059289;28;20034;-43
2023/03/22 09:00:31;;;;;;;6.80;2.88;;;13.00;99.90;;;;;;5059264;28;20024;-43
2023/03/22 09:02:57;;;;;;;7.10;2.80;;;13.10;99.90;;;;;;5059864;28;20040;-43
2023/03/22 09:05:22;;;;;;;7.40;3.70;;;13.20;99.90;;;;;;5058561;28;20025;-42
2023/03/22 09:07:52;;;;;;;10.02;3.17;;;13.20;99.90;;;;;;5059993;28;20036;-43
2023/03/22 09:10:20;;;;;;;7.35;3.40;;;13.30;99.90;;;;;;5059763;28;20100;-43
2023/03/22 09:12:47;;;;;;;6.35;2.72;;;13.30;99.90;;;;;;5059247;28;20040;-43
2023/03/22 09:15:13;;;;;;;5.32;2.65;;;13.30;99.90;;;;;;5058959;28;20545;-44
2023/03/22 09:17:38;;;;;;;7.75;3.03;;;13.30;99.90;;;;;;5058391;28;20044;-43
2023/03/22 09:20:06;;;;;;;8.95;2.80;;;13.40;99.90;;;;;;5059305;28;20085;-43
2023/03/22 09:22:31;;;;;;;5.15;2.53;;;13.40;99.90;;;;;;5059923;28;20498;-44
2023/03/22 09:24:57;;;;;;;7.25;3.10;;;13.50;99.90;;;;;;5059802;28;20008;-44
2023/03/22 09:27:23;;;;;;;6.78;2.63;;;13.50;99.90;;;;;;5059991;28;20632;-43
2023/03/22 09:29:52;;;;;;;6.78;2.67;;;13.60;99.90;;;;;;5058681;28;20595;-43
2023/03/22 09:32:20;;;;;;;7.40;2.40;;;13.60;99.90;;;;;;5054459;28;20063;-46
2023/03/22 09:34:46;;;;;;;5.60;2.35;;;13.60;99.90;;;;;;5058858;28;20027;-43
2023/03/22 09:37:13;;;;;;;8.57;2.85;;;13.60;99.90;;;;;;5057462;28;20032;-43
2023/03/22 09:39:39;;;;;;;4.75;2.00;;;13.60;99.90;;;;;;5057963;28;20105;-43
2023/03/22 09:42:15;;;;;;;7.40;2.30;;;13.50;99.90;;;;;;5057798;28;20089;-44
2023/03/22 09:44:43;;;;;;;8.82;2.20;;;13.60;99.90;;;;;;5059429;28;20139;-43
2023/03/22 09:47:22;;;;;;;3.95;2.15;;;13.50;99.90;;;;;;5058159;28;20467;-44
2023/03/22 09:49:51;;;;;;;7.32;2.13;;;13.40;99.90;;;;;;5059982;28;20064;-44
2023/03/22 09:52:17;;;;;;;6.35;2.17;;;13.40;99.90;;;;;;5058892;28;20058;-44
2023/03/22 09:54:45;;;;;;;6.53;2.15;;;13.30;99.90;;;;;;5059356;28;20426;-43
2023/03/22 09:57:27;;;;;;;6.88;2.03;;;13.20;99.90;;;;;;5058878;28;20036;-44
2023/03/22 10:00:13;;;;;;;7.07;2.00;;;13.20;99.90;;;;;;5039825;28;20065;-44
2023/03/22 10:02:44;;;;;;;5.10;2.00;;;13.10;99.90;;;;;;5057666;28;20028;-44
2023/03/22 10:05:23;;;;;;;6.22;1.75;;;13.10;99.90;;;;;;5059248;28;20765;-44
2023/03/22 10:07:48;;;;;;;6.03;2.03;;;13.10;99.90;;;;;;5059113;28;20075;-43
2023/03/22 10:10:24;;;;;;;7.00;2.05;;;13.10;99.90;;;;;;5058729;28;20143;-42
2023/03/22 10:13:14;;;;;;;4.70;1.90;;;13.10;99.90;;;;;;5059482;28;20044;-43
2023/03/22 10:15:41;;;;;;;6.10;2.00;;;13.10;99.90;;;;;;5059725;28;20502;-43
2023/03/22 10:18:15;;;;;;;9.20;2.60;;;13.10;99.90;;;;;;5058236;28;20357;-43
2023/03/22 10:20:47;;;;;;;6.95;2.17;;;13.10;99.90;;;;;;5059919;28;20128;-43
2023/03/22 10:23:21;;;;;;;6.97;2.08;;;13.10;99.90;;;;;;5059481;28;20028;-44
2023/03/22 10:25:46;;;;;;;5.05;2.00;;;13.10;99.90;;;;;;5061861;28;20033;-43
2023/03/22 10:28:20;;;;;;;8.02;2.15;;;13.00;99.90;;;;;;5062085;28;20028;-43
2023/03/22 10:30:54;;;;;;;4.88;1.80;;;13.00;99.90;;;;;;5063230;28;20032;-44
2023/03/22 10:33:58;;;;;;;7.13;2.55;;;12.90;99.90;;;;;;5062505;28;20028;-44
2023/03/22 10:36:33;;;;;;;5.68;1.40;;;12.80;99.90;;;;;;5042787;28;20039;-44
2023/03/22 10:39:29;;;;;;;6.10;1.90;;;12.70;99.90;;;;;;5061668;28;20127;-44
2023/03/22 10:41:56;;;;;;;7.03;1.90;;;12.70;99.90;;;;;;5062530;28;20090;-44
2023/03/22 10:44:25;;;;;;;8.30;2.20;;;12.60;99.90;;;;;;5061758;28;20028;-44
2023/03/22 10:46:53;;;;;;;5.93;2.30;;;12.60;99.90;;;;;;5063394;28;20028;-43
2023/03/22 10:49:28;;;;;;;6.20;2.17;;;12.50;99.90;;;;;;5061320;28;20111;-43
2023/03/22 10:52:12;;;;;;;5.93;1.75;;;12.50;99.90;;;;;;5063026;28;20079;-44
2023/03/22 10:54:38;;;;;;;7.93;2.45;;;12.40;99.90;;;;;;5062349;28;20529;-44
2023/03/22 10:57:03;;;;;;;6.63;2.05;;;12.40;99.90;;;;;;5061777;28;20032;-44
2023/03/22 10:59:49;;;;;;;6.38;1.92;;;12.40;99.90;;;;;;5062378;28;20110;-43
2023/03/22 11:02:25;;;;;;;6.47;1.92;;;12.40;99.90;;;;;;5062325;28;20059;-43
2023/03/22 11:05:03;;;;;;;7.35;2.10;;;12.40;99.90;;;;;;5062313;28;20024;-44
2023/03/22 11:07:38;;;;;;;6.25;2.13;;;12.40;99.90;;;;;;5062800;28;20020;-44
2023/03/22 11:10:06;;;;;;;5.65;2.33;;;12.40;99.90;;;;;;5061056;28;20452;-43
2023/03/22 11:12:33;;;;;;;5.20;2.03;;;12.40;99.90;;;;;;5062818;28;20024;-44
2023/03/22 11:14:58;;;;;;;9.60;2.10;;;12.40;99.90;;;;;;5062357;28;20040;-43
2023/03/22 11:17:24;;;;;;;6.72;2.38;;;12.40;99.90;;;;;;5061802;28;20055;-43
2023/03/22 11:19:54;;;;;;;5.18;1.95;;;12.30;99.90;;;;;;5062362;28;20115;-43
2023/03/22 11:22:36;;;;;;;4.82;2.00;;;12.30;99.90;;;;;;5062576;28;20042;-43
2023/03/22 11:25:04;;;;;;;5.75;1.80;;;12.30;99.90;;;;;;5062108;28;20372;-43
2023/03/22 11:27:33;;;;;;;9.63;2.47;;;12.30;99.90;;;;;;5062686;28;20035;-43
2023/03/22 11:30:19;;;;;;;8.52;2.13;;;12.30;99.90;;;;;;5062306;28;20033;-44
2023/03/22 11:32:45;;;;;;;5.18;2.10;;;12.30;99.90;;;;;;5061867;28;20086;-43
2023/03/22 11:35:14;;;;;;;4.72;1.85;;;12.40;99.90;;;;;;5061621;28;20551;-43
2023/03/22 11:37:54;;;;;;;3.45;1.35;;;12.40;99.90;;;;;;5061401;28;20794;-43
2023/03/22 11:40:25;;;;;;;3.85;1.73;;;12.50;99.90;;;;;;5060905;28;20875;-44
2023/03/22 11:43:22;;;;;;;5.78;2.45;;;12.50;99.90;;;;;;5062567;28;20119;-44
2023/03/22 11:45:52;;;;;;;4.80;1.92;;;12.50;99.90;;;;;;5061912;28;20032;-44
2023/03/22 11:48:21;;;;;;;4.38;1.90;;;12.50;99.90;;;;;;5061825;28;20017;-43
2023/03/22 11:50:48;;;;;;;3.60;1.50;;;12.60;99.90;;;;;;5061740;28;20478;-44
2023/03/22 11:53:17;;;;;;;6.45;2.00;;;12.60;99.90;;;;;;5061002;28;20052;-44
2023/03/22 11:55:44;;;;;;;5.45;2.10;;;12.60;99.90;;;;;;5061791;28;20056;-43
2023/03/22 11:58:23;;;;;;;4.05;1.90;;;12.70;99.90;;;;;;5061667;28;20757;-43
2023/03/22 12:00:53;;;;;;;4.78;1.65;;;12.70;99.90;;;;;;5060494;28;20395;-44
2023/03/22 12:03:24;;;;;;;7.35;2.78;;;12.60;99.90;;;;;;5060578;28;20078;-43
2023/03/22 12:05:51;;;;;;;4.22;1.90;;;12.60;99.90;;;;;;5061637;28;20108;-44
2023/03/22 12:08:43;;;;;;;6.63;2.30;;;12.70;99.90;;;;;;5060074;28;20060;-44
2023/03/22 12:11:24;;;;;;;5.10;1.70;;;12.70;99.90;;;;;;5061301;28;20029;-44
2023/03/22 12:14:08;;;;;;;3.78;2.08;;;12.70;99.90;;;;;;5060718;28;20510;-43
2023/03/22 12:16:48;;;;;;;6.18;2.17;;;12.70;99.90;;;;;;5061369;28;20031;-44
2023/03/22 12:19:13;;;;;;;3.00;1.60;;;12.70;99.90;;;;;;5061118;28;20036;-44
2023/03/22 12:21:40;;;;;;;5.63;2.42;;;12.70;99.90;;;;;;5059598;28;20054;-42
2023/03/22 12:24:22;;;;;;;5.00;1.55;;;12.80;99.90;;;;;;5060512;28;20036;-43
2023/03/22 12:26:48;;;;;;;7.72;2.50;;;12.70;99.90;;;;;;5061644;28;20034;-43
2023/03/22 12:29:17;;;;;;;4.20;2.08;;;12.70;99.90;;;;;;5060213;28;20039;-43
2023/03/22 12:32:00;;;;;;;6.03;2.05;;;12.70;99.90;;;;;;5061345;28;20039;-43
2023/03/22 12:34:37;;;;;;;5.18;1.80;;;12.70;99.90;;;;;;5060198;28;20124;-43
2023/03/22 12:37:09;;;;;;;5.13;2.03;;;12.70;99.90;;;;;;5061562;28;20140;-43
2023/03/22 12:39:41;;;;;;;5.78;2.20;;;12.70;99.90;;;;;;5061037;28;20037;-44
2023/03/22 12:42:48;;;;;;;4.75;1.88;;;12.70;99.90;;;;;;5060118;28;20030;-44
2023/03/22 12:45:20;;;;;;;3.13;1.90;;;12.70;99.90;;;;;;5059812;28;20032;-44
2023/03/22 12:47:51;;;;;;;6.07;1.50;;;12.70;99.90;;;;;;5060709;28;20110;-43
2023/03/22 12:50:24;;;;;;;3.00;1.63;;;12.70;99.90;;;;;;5059553;28;20598;-43
2023/03/22 12:52:53;;;;;;;4.20;1.35;;;12.80;99.90;;;;;;5060388;28;20051;-43
2023/03/22 12:55:29;;;;;;;5.85;1.85;;;12.90;99.90;;;;;;5059344;28;20028;-43
2023/03/22 12:57:56;;;;;;;5.28;1.42;;;12.90;99.90;;;;;;5060275;28;20060;-43
2023/03/22 13:00:31;;;;;;;3.17;1.95;;;12.90;99.90;;;;;;5060755;28;20024;-44
2023/03/22 13:03:05;;;;;;;3.78;1.60;;;12.90;99.90;;;;;;5058850;28;20782;-44